createdAt,value
2022-09-15T00:00:46.518Z,100
2022-09-15T00:20:46.488Z,100
2022-09-15T00:40:46.438Z,100
2022-09-15T01:00:46.446Z,100
2022-09-15T01:20:46.366Z,100
2022-09-15T01:40:46.333Z,100
2022-09-15T02:00:46.317Z,100
2022-09-15T02:20:46.250Z,100
2022-09-15T02:40:46.215Z,100
2022-09-15T03:00:46.218Z,100
2022-09-15T03:20:46.146Z,100
2022-09-15T03:40:46.103Z,100
2022-09-15T04:00:46.146Z,100
2022-09-15T04:20:46.026Z,100
2022-09-15T04:40:45.982Z,100
2022-09-15T05:00:46.025Z,99.7
2022-09-15T05:40:45.866Z,98.9
2022-09-15T06:00:45.827Z,98.7
2022-09-15T06:20:45.795Z,98.5
2022-09-15T06:40:45.761Z,97.9
2022-09-15T07:00:45.717Z,96.5
2022-09-15T07:20:45.702Z,95.1
2022-09-15T07:40:45.639Z,92.6
2022-09-15T08:00:45.623Z,90.8
2022-09-15T08:20:45.556Z,90
2022-09-15T08:40:45.546Z,88.3
2022-09-15T09:00:45.484Z,81.1
2022-09-15T09:20:45.453Z,78.8
2022-09-15T10:00:45.366Z,75.6
2022-09-15T10:20:45.329Z,80.4
2022-09-15T10:40:45.282Z,84
2022-09-15T11:00:45.292Z,81.7
2022-09-15T11:20:45.199Z,76.7
2022-09-15T12:00:45.146Z,68.8
2022-09-15T12:20:45.075Z,70.7
2022-09-15T13:01:07.062Z,69.9
2022-09-15T13:20:44.964Z,68.4
2022-09-15T13:40:44.932Z,66.3
2022-09-15T14:00:44.959Z,62.3
2022-09-15T14:20:44.859Z,58
2022-09-15T14:40:44.858Z,59
2022-09-15T15:00:44.802Z,62.5
2022-09-15T15:20:44.732Z,62.4
2022-09-15T16:00:44.733Z,64.3
2022-09-15T16:20:44.597Z,65.5
2022-09-15T16:40:44.595Z,66.9
2022-09-15T17:00:44.583Z,67.7
2022-09-15T18:00:44.407Z,70.1
2022-09-15T18:40:44.321Z,71.1
2022-09-15T19:00:44.273Z,74.1
2022-09-15T19:20:44.244Z,75.5
2022-09-15T19:40:44.219Z,73
2022-09-15T20:00:44.162Z,71.5
2022-09-15T20:20:44.136Z,74.6
2022-09-15T20:40:44.088Z,76.1
2022-09-15T21:00:44.050Z,77.4
2022-09-15T21:20:44.013Z,78
2022-09-15T21:40:44.009Z,79.8
2022-09-15T22:00:43.973Z,81
2022-09-15T22:20:43.904Z,82.2
2022-09-15T22:40:43.884Z,82.2
2022-09-15T23:00:43.855Z,83.5
2022-09-15T23:20:43.805Z,83.6
2022-09-15T23:40:43.746Z,83.7
